Time;durP1;ratioP1;P1;durP2;ratioP2;P2;SDS_P1;SDS_P2;PMS_P1;PMS_P2;Temp;Humidity;BMP_temperature;BMP_pressure;BME280_temperature;BME280_humidity;BME280_pressure;Samples;Min_cycle;Max_cycle;Signal;HPM_P1;HPM_P2
2021/01/19 05:36:49;;;;;;;6.38;1.20;;;14.20;56.10;;;;;;6273885;22;20015;-82
2021/01/19 05:39:49;;;;;;;1.65;1.00;;;14.20;56.10;;;;;;6288533;22;20007;-79
2021/01/19 05:42:25;;;;;;;6.28;1.25;;;14.20;56.20;;;;;;6253869;22;20030;-88
2021/01/19 05:45:34;;;;;;;6.57;1.20;;;14.30;56.60;;;;;;6278708;22;20108;-83
2021/01/19 05:48:17;;;;;;;4.47;1.52;;;14.30;56.80;;;;;;6256170;22;20087;-85
2021/01/19 05:50:56;;;;;;;5.75;1.23;;;14.30;57.00;;;;;;6288816;22;20083;-84
2021/01/19 05:56:26;;;;;;;5.45;1.10;;;14.40;57.40;;;;;;6226884;22;20393;-79
2021/01/19 05:58:52;;;;;;;5.68;1.05;;;14.50;57.40;;;;;;6289864;22;20027;-82
2021/01/19 06:01:33;;;;;;;5.13;0.90;;;14.60;57.50;;;;;;6253431;22;20015;-81
2021/01/19 06:04:02;;;;;;;8.60;1.33;;;14.70;57.40;;;;;;6279482;22;20016;-78
2021/01/19 06:06:29;;;;;;;4.47;1.20;;;14.70;57.60;;;;;;6279145;22;20003;-79
2021/01/19 06:09:04;;;;;;;4.63;1.50;;;14.80;57.80;;;;;;6280984;22;20003;-79
2021/01/19 06:11:30;;;;;;;7.07;1.15;;;14.90;58.00;;;;;;6290021;22;20015;-79
2021/01/19 06:13:56;;;;;;;6.82;1.50;;;15.00;57.90;;;;;;6289617;22;20014;-80
2021/01/19 06:16:24;;;;;;;2.83;1.10;;;15.00;58.00;;;;;;6288433;22;20038;-82
2021/01/19 06:18:50;;;;;;;2.53;1.10;;;15.10;58.40;;;;;;6289150;22;20065;-81
2021/01/19 06:21:30;;;;;;;3.70;1.23;;;15.10;58.40;;;;;;6278508;22;20008;-81
2021/01/19 06:23:57;;;;;;;2.33;1.25;;;15.20;58.00;;;;;;6278665;22;20017;-80
2021/01/19 06:26:23;;;;;;;6.72;1.17;;;15.20;58.00;;;;;;6278768;22;20014;-79
2021/01/19 06:28:49;;;;;;;9.45;1.65;;;15.30;58.00;;;;;;6289796;22;20004;-81
2021/01/19 06:31:19;;;;;;;5.85;1.20;;;15.30;58.10;;;;;;6288426;22;20019;-82
2021/01/19 06:33:47;;;;;;;4.05;1.10;;;15.40;58.10;;;;;;6252660;22;20007;-81
2021/01/19 06:36:15;;;;;;;4.97;1.35;;;15.50;58.20;;;;;;6252323;22;20069;-81
2021/01/19 06:38:49;;;;;;;6.90;1.10;;;15.50;58.30;;;;;;6278433;22;20007;-82
2021/01/19 06:41:19;;;;;;;9.65;0.98;;;15.60;58.50;;;;;;6279508;22;20336;-81
2021/01/19 06:43:54;;;;;;;12.15;1.75;;;15.60;58.50;;;;;;6279351;22;20087;-83
2021/01/19 06:46:53;;;;;;;11.63;1.67;;;15.70;58.90;;;;;;6279600;22;20086;-85
2021/01/19 06:49:24;;;;;;;5.68;1.77;;;15.70;59.30;;;;;;6279742;22;20070;-84
2021/01/19 06:51:56;;;;;;;6.60;1.42;;;15.80;59.20;;;;;;6288596;22;20069;-80
2021/01/19 06:54:29;;;;;;;5.18;1.20;;;15.80;59.40;;;;;;6279770;22;20284;-79
2021/01/19 06:58:01;;;;;;;;;;;;;;;;;;;;;
2021/01/19 07:00:36;;;;;;;4.43;1.10;;;15.90;58.70;;;;;;6131316;23;20016;-82
2021/01/19 07:03:20;;;;;;;11.43;1.50;;;15.80;58.80;;;;;;6155853;23;20366;-81
2021/01/19 07:06:08;;;;;;;6.28;0.82;;;15.80;59.00;;;;;;6255134;22;20404;-83
2021/01/19 07:08:37;;;;;;;4.75;1.10;;;15.90;59.20;;;;;;6278652;22;20034;-82
2021/01/19 07:11:39;;;;;;;6.88;1.02;;;15.90;59.10;;;;;;6278125;22;20293;-83
2021/01/19 07:14:14;;;;;;;4.68;0.73;;;16.00;59.00;;;;;;6177545;22;20015;-83
2021/01/19 07:17:00;;;;;;;6.50;0.90;;;16.00;59.00;;;;;;6252051;22;20015;-81
2021/01/19 07:19:35;;;;;;;5.50;0.85;;;16.10;58.90;;;;;;6279034;22;20003;-82
2021/01/19 07:22:05;;;;;;;5.32;1.02;;;16.10;58.90;;;;;;6251986;22;20405;-82
2021/01/19 07:24:38;;;;;;;5.47;0.93;;;16.10;58.70;;;;;;6252272;22;20008;-81
2021/01/19 07:27:07;;;;;;;5.68;1.23;;;16.20;58.70;;;;;;6278581;22;20050;-79
2021/01/19 07:29:33;;;;;;;4.45;0.80;;;16.20;58.70;;;;;;6277865;22;20393;-84
2021/01/19 07:32:05;;;;;;;5.20;0.90;;;16.20;58.60;;;;;;6288545;22;20007;-82
2021/01/19 07:34:31;;;;;;;2.75;1.27;;;16.30;58.60;;;;;;6278205;22;20008;-81
2021/01/19 07:36:57;;;;;;;3.75;1.30;;;16.30;58.10;;;;;;6276772;22;20083;-79
2021/01/19 07:39:23;;;;;;;8.52;2.22;;;16.30;57.90;;;;;;6288464;22;20007;-81
2021/01/19 07:41:49;;;;;;;9.35;2.25;;;16.30;56.90;;;;;;6287902;22;20012;-83
2021/01/19 07:44:21;;;;;;;6.20;1.25;;;16.30;57.10;;;;;;6287681;22;20065;-81
2021/01/19 07:46:47;;;;;;;4.85;1.33;;;16.30;57.60;;;;;;6277110;22;20069;-82
2021/01/19 07:49:13;;;;;;;6.18;1.60;;;16.30;57.60;;;;;;6289232;22;20007;-83
2021/01/19 07:51:47;;;;;;;5.63;1.13;;;16.30;57.70;;;;;;6288295;22;20015;-81
2021/01/19 07:54:35;;;;;;;3.58;1.02;;;16.30;57.80;;;;;;6289101;22;20274;-80
2021/01/19 07:57:15;;;;;;;6.28;1.27;;;16.20;57.90;;;;;;6287369;22;20090;-81
2021/01/19 07:59:42;;;;;;;5.70;1.27;;;16.20;58.00;;;;;;6278218;22;20399;-83
2021/01/19 08:02:19;;;;;;;6.13;1.23;;;16.20;58.00;;;;;;6277024;22;20093;-82
2021/01/19 08:04:45;;;;;;;8.23;1.15;;;16.20;58.00;;;;;;6277051;22;20393;-82
2021/01/19 08:07:13;;;;;;;5.70;1.45;;;16.20;58.00;;;;;;6277809;22;20018;-84
2021/01/19 08:09:39;;;;;;;5.45;1.48;;;16.20;58.00;;;;;;6288101;22;20007;-82
2021/01/19 08:12:07;;;;;;;6.38;1.50;;;16.20;58.00;;;;;;6276736;22;20416;-83
2021/01/19 08:14:45;;;;;;;8.13;1.48;;;16.20;57.90;;;;;;6251737;22;20079;-83
2021/01/19 08:17:12;;;;;;;5.05;1.38;;;16.20;57.90;;;;;;6277199;22;20003;-83
2021/01/19 08:19:45;;;;;;;8.43;1.00;;;16.20;57.90;;;;;;6288668;22;20039;-85
2021/01/19 08:22:13;;;;;;;6.80;1.10;;;16.20;58.00;;;;;;6286851;22;20038;-82
2021/01/19 08:24:43;;;;;;;7.75;1.35;;;16.20;58.00;;;;;;6287620;22;20026;-84
2021/01/19 08:27:09;;;;;;;8.95;1.20;;;16.20;57.90;;;;;;6286753;22;20417;-84
2021/01/19 08:29:37;;;;;;;8.30;1.33;;;16.30;58.00;;;;;;6287057;22;20034;-84
2021/01/19 08:32:04;;;;;;;7.65;1.10;;;16.30;58.10;;;;;;6277111;22;20401;-82
2021/01/19 08:34:32;;;;;;;4.90;1.10;;;16.40;58.10;;;;;;6277002;22;20008;-83
2021/01/19 08:37:01;;;;;;;4.90;1.10;;;16.40;57.70;;;;;;6279781;22;20347;-84
2021/01/19 08:39:27;;;;;;;2.03;1.13;;;16.40;57.40;;;;;;6277215;22;20007;-83
2021/01/19 08:41:55;;;;;;;2.65;0.80;;;16.40;57.20;;;;;;6278306;22;20026;-83
2021/01/19 08:44:22;;;;;;;1.80;0.80;;;16.40;57.30;;;;;;6276913;22;20008;-83
2021/01/19 08:46:49;;;;;;;3.63;0.85;;;16.50;57.50;;;;;;6277168;22;20026;-81
2021/01/19 08:49:17;;;;;;;5.80;0.80;;;16.50;57.40;;;;;;6252043;22;20480;-82
2021/01/19 08:51:48;;;;;;;4.40;0.90;;;16.50;57.30;;;;;;6279187;22;20012;-81
2021/01/19 08:54:15;;;;;;;4.47;0.80;;;16.50;57.30;;;;;;6290534;22;20010;-84
2021/01/19 08:56:43;;;;;;;2.53;0.90;;;16.50;57.40;;;;;;6254256;22;20008;-82
2021/01/19 08:59:13;;;;;;;3.08;0.70;;;16.50;57.20;;;;;;6278909;22;20288;-81
2021/01/19 09:01:54;;;;;;;3.00;0.85;;;16.50;57.20;;;;;;6279324;22;20016;-80
2021/01/19 09:04:28;;;;;;;2.22;0.70;;;16.50;57.10;;;;;;6290078;22;20014;-84
2021/01/19 09:07:14;;;;;;;4.28;0.60;;;16.50;57.20;;;;;;6279273;22;20015;-86
2021/01/19 09:09:47;;;;;;;3.55;0.77;;;16.50;57.20;;;;;;6254401;22;20403;-88
2021/01/19 09:12:22;;;;;;;2.25;0.55;;;16.50;57.20;;;;;;6253287;22;20018;-85
2021/01/19 09:15:00;;;;;;;4.43;0.80;;;16.50;57.20;;;;;;6253493;22;20011;-84
2021/01/19 09:17:38;;;;;;;1.67;0.50;;;16.50;57.10;;;;;;6277772;22;20019;-85
2021/01/19 09:20:11;;;;;;;2.90;0.60;;;16.50;57.00;;;;;;6253420;22;20008;-82
2021/01/19 09:22:42;;;;;;;2.25;0.73;;;16.40;56.90;;;;;;6254308;22;20431;-84
2021/01/19 09:25:18;;;;;;;3.58;0.40;;;16.40;56.80;;;;;;6251480;22;20012;-85
2021/01/19 09:27:50;;;;;;;2.63;0.47;;;16.40;56.90;;;;;;6254557;22;20007;-83
2021/01/19 09:30:19;;;;;;;2.35;0.47;;;16.40;56.90;;;;;;6253530;22;20459;-85
2021/01/19 09:32:51;;;;;;;2.28;0.70;;;16.40;57.00;;;;;;6253551;22;20094;-81
2021/01/19 09:35:18;;;;;;;3.85;0.70;;;16.40;56.90;;;;;;6252467;22;20008;-85
2021/01/19 09:37:44;;;;;;;4.47;0.70;;;16.40;57.10;;;;;;6253241;22;20031;-84
2021/01/19 09:40:10;;;;;;;1.42;0.43;;;16.50;57.20;;;;;;6253255;22;20099;-83
2021/01/19 09:42:40;;;;;;;5.95;0.60;;;16.50;57.10;;;;;;6253113;22;20016;-85
2021/01/19 09:45:09;;;;;;;1.95;0.68;;;16.50;57.10;;;;;;6252866;22;20095;-83
2021/01/19 09:51:27;;;;;;;4.72;0.73;;;16.50;56.80;;;;;;6279975;22;20056;-84
2021/01/19 09:53:55;;;;;;;3.90;0.60;;;16.40;56.80;;;;;;6279104;22;20003;-85
2021/01/19 09:56:20;;;;;;;5.72;0.50;;;16.40;57.00;;;;;;6279766;22;20004;-85
2021/01/19 09:59:26;;;;;;;6.28;0.88;;;16.40;57.10;;;;;;6279223;22;20004;-89
2021/01/19 10:02:42;;;;;;;16.75;1.13;;;16.30;57.00;;;;;;6077348;23;20018;-79
2021/01/19 10:05:08;;;;;;;14.43;1.70;;;16.40;57.30;;;;;;6034441;23;20324;-83
2021/01/19 10:07:34;;;;;;;7.88;1.45;;;16.40;57.60;;;;;;6270977;22;20073;-81
2021/01/19 10:10:13;;;;;;;5.57;1.05;;;16.40;57.50;;;;;;6289257;22;20065;-81
2021/01/19 10:12:40;;;;;;;6.15;0.82;;;16.30;57.30;;;;;;6278330;22;20305;-81
2021/01/19 10:15:08;;;;;;;7.68;1.27;;;16.30;57.40;;;;;;6279892;22;20014;-81
2021/01/19 10:17:35;;;;;;;8.60;1.10;;;16.30;57.50;;;;;;6279098;22;20011;-81
2021/01/19 10:20:14;;;;;;;4.00;0.70;;;16.30;57.50;;;;;;6279642;22;20294;-82
2021/01/19 10:22:46;;;;;;;7.68;1.17;;;16.30;57.50;;;;;;6278594;22;20057;-82
2021/01/19 10:25:24;;;;;;;4.75;1.05;;;16.30;57.60;;;;;;6288647;22;20408;-82
2021/01/19 10:28:04;;;;;;;4.38;1.00;;;16.30;57.60;;;;;;6278928;22;20007;-82
2021/01/19 10:30:35;;;;;;;6.78;0.80;;;16.30;57.70;;;;;;6289169;22;20262;-82
2021/01/19 10:33:02;;;;;;;7.80;1.30;;;16.30;58.30;;;;;;6253290;22;20011;-81
2021/01/19 10:36:07;;;;;;;8.48;1.05;;;16.30;57.80;;;;;;6278562;22;20026;-84
2021/01/19 10:42:31;;;;;;;2.78;0.68;;;16.20;57.90;;;;;;6246169;23;20020;-84
2021/01/19 10:45:42;;;;;;;;;;;;;;;;;;;;;
2021/01/19 10:51:54;;;;;;;5.43;1.25;;;16.20;58.30;;;;;;6221900;23;20420;-85
2021/01/19 10:54:55;;;;;;;7.25;0.88;;;16.20;58.20;;;;;;6158980;23;20017;-83
2021/01/19 10:57:43;;;;;;;4.07;0.63;;;16.20;58.30;;;;;;6157413;23;20005;-83
2021/01/19 11:00:36;;;;;;;4.97;1.10;;;16.20;58.40;;;;;;6137475;23;20017;-83
2021/01/19 11:03:24;;;;;;;3.13;0.70;;;16.20;58.50;;;;;;6138326;23;20162;-84
2021/01/19 11:06:09;;;;;;;5.78;0.82;;;16.20;58.50;;;;;;6192728;23;20032;-84
2021/01/19 11:08:42;;;;;;;3.78;1.08;;;16.10;58.50;;;;;;6222672;23;20015;-83
2021/01/19 11:11:29;;;;;;;5.47;0.80;;;16.20;58.60;;;;;;6197820;23;20070;-84
2021/01/19 11:17:16;;;;;;;4.90;0.90;;;16.20;58.60;;;;;;6210665;23;20070;-84
2021/01/19 11:19:56;;;;;;;5.03;1.27;;;16.30;58.70;;;;;;6197751;23;20012;-84
2021/01/19 11:22:26;;;;;;;4.10;1.13;;;16.20;58.70;;;;;;6192229;23;20026;-84
2021/01/19 11:24:53;;;;;;;6.47;0.80;;;16.20;58.70;;;;;;6185565;23;20124;-78
2021/01/19 11:27:19;;;;;;;9.32;1.08;;;16.20;58.70;;;;;;6246682;23;20039;-82
2021/01/19 11:29:45;;;;;;;5.75;1.33;;;16.20;59.10;;;;;;6258862;23;20377;-82
2021/01/19 11:32:11;;;;;;;4.38;0.90;;;16.20;59.40;;;;;;6222633;23;20043;-82
2021/01/19 11:34:36;;;;;;;6.40;1.35;;;16.20;59.70;;;;;;6222037;23;20401;-84
2021/01/19 11:37:02;;;;;;;6.82;0.82;;;16.20;60.00;;;;;;6250070;22;20353;-82
2021/01/19 11:39:29;;;;;;;8.35;1.38;;;16.20;60.10;;;;;;6253045;22;20019;-80
2021/01/19 11:41:55;;;;;;;7.63;1.38;;;16.10;60.20;;;;;;6277471;22;20431;-83
2021/01/19 11:44:51;;;;;;;11.52;1.88;;;16.10;60.60;;;;;;6277993;22;20031;-84
2021/01/19 11:47:59;;;;;;;7.35;2.45;;;16.20;61.00;;;;;;6278922;22;20010;-88
2021/01/19 11:50:25;;;;;;;7.32;1.60;;;16.20;61.50;;;;;;6250856;22;20007;-84
2021/01/19 11:53:01;;;;;;;6.47;1.30;;;16.20;60.90;;;;;;6277599;22;20081;-84
2021/01/19 11:55:27;;;;;;;7.90;1.38;;;16.20;60.50;;;;;;6278088;22;20015;-83
2021/01/19 11:57:53;;;;;;;8.25;1.58;;;16.30;60.30;;;;;;6279276;22;20073;-82
2021/01/19 12:01:13;;;;;;;8.57;1.50;;;16.30;60.30;;;;;;6277598;22;20016;-85
2021/01/19 12:04:06;;;;;;;8.10;1.65;;;16.30;60.10;;;;;;6131143;23;20049;-86
2021/01/19 12:06:44;;;;;;;12.75;2.42;;;16.20;60.50;;;;;;6203546;22;20352;-82
2021/01/19 12:09:22;;;;;;;7.32;1.08;;;16.30;60.80;;;;;;6252247;22;20436;-83
2021/01/19 12:11:57;;;;;;;10.18;1.63;;;16.30;60.70;;;;;;6277661;22;20008;-83
2021/01/19 12:14:23;;;;;;;8.90;1.35;;;16.30;60.30;;;;;;6251275;22;20011;-83
2021/01/19 12:16:59;;;;;;;10.70;1.58;;;16.30;59.70;;;;;;6252209;22;20011;-83
2021/01/19 12:19:30;;;;;;;8.98;1.20;;;16.20;59.80;;;;;;6253475;22;20011;-83
2021/01/19 12:22:01;;;;;;;8.00;1.25;;;16.20;59.80;;;;;;6252031;22;20095;-82
2021/01/19 12:24:39;;;;;;;8.73;1.52;;;16.10;59.50;;;;;;6252570;22;20012;-85
2021/01/19 12:31:22;;;;;;;;;;;;;;;;;;;;;
2021/01/19 12:34:07;;;;;;;15.43;2.22;;;16.10;60.10;;;;;;6155439;23;20008;-80
2021/01/19 12:36:42;;;;;;;12.38;1.50;;;16.10;60.20;;;;;;6130574;23;20009;-86
2021/01/19 12:39:08;;;;;;;12.85;1.85;;;16.10;60.50;;;;;;6102336;23;20033;-84
2021/01/19 12:41:53;;;;;;;10.55;1.48;;;16.20;60.60;;;;;;6209240;22;20397;-85
2021/01/19 12:44:57;;;;;;;10.75;1.67;;;16.20;60.60;;;;;;6252463;22;20082;-83
2021/01/19 12:48:22;;;;;;;10.40;1.50;;;16.30;60.40;;;;;;6254158;22;20003;-85
2021/01/19 12:50:59;;;;;;;13.05;1.27;;;16.40;60.40;;;;;;6105811;23;20300;-83
2021/01/19 12:53:25;;;;;;;11.73;1.52;;;16.40;60.70;;;;;;6196088;22;20015;-82
2021/01/19 12:55:51;;;;;;;17.02;2.20;;;16.40;60.70;;;;;;6287617;22;20008;-84
2021/01/19 13:07:13;;;;;;;16.05;1.58;;;16.50;60.90;;;;;;6244133;22;20114;-82
2021/01/19 13:13:16;;;;;;;15.30;2.17;;;16.60;61.10;;;;;;6247022;23;20038;-82
2021/01/19 13:15:42;;;;;;;11.18;1.27;;;16.50;61.50;;;;;;6256730;23;20441;-81
2021/01/19 13:18:08;;;;;;;14.02;2.00;;;16.50;61.80;;;;;;6247065;22;20008;-81
2021/01/19 13:20:34;;;;;;;14.02;2.10;;;16.40;61.80;;;;;;6246031;23;20393;-81
2021/01/19 13:22:59;;;;;;;13.73;1.52;;;16.40;61.90;;;;;;6255136;23;20079;-83
2021/01/19 13:25:26;;;;;;;18.17;2.03;;;16.40;61.90;;;;;;6246605;23;20031;-80
2021/01/19 13:27:52;;;;;;;14.90;2.03;;;16.40;61.90;;;;;;6247904;22;20008;-81
2021/01/19 13:30:18;;;;;;;10.10;1.65;;;16.40;61.90;;;;;;6248175;23;20014;-80
2021/01/19 13:32:44;;;;;;;11.70;1.90;;;16.40;61.90;;;;;;6246791;23;20023;-81
2021/01/19 13:35:10;;;;;;;8.60;1.42;;;16.40;61.90;;;;;;6256801;23;20004;-82
2021/01/19 13:37:36;;;;;;;11.23;1.77;;;16.40;61.90;;;;;;6248473;23;20018;-80
2021/01/19 13:40:03;;;;;;;12.75;2.05;;;16.30;61.80;;;;;;6249317;22;20008;-80
2021/01/19 13:42:29;;;;;;;15.25;1.63;;;16.30;61.80;;;;;;6248639;23;20012;-80
2021/01/19 13:44:55;;;;;;;4.93;1.20;;;16.40;61.80;;;;;;6259855;23;20015;-80
2021/01/19 13:47:21;;;;;;;7.97;1.13;;;16.40;61.80;;;;;;6249687;23;20012;-80
2021/01/19 13:49:46;;;;;;;13.13;1.40;;;16.40;61.70;;;;;;6248235;23;20016;-82
2021/01/19 13:52:12;;;;;;;5.13;1.70;;;16.50;61.80;;;;;;6248076;23;20726;-81
2021/01/19 13:54:38;;;;;;;8.25;1.15;;;16.50;62.40;;;;;;6258559;23;20091;-81
2021/01/19 13:57:05;;;;;;;7.10;1.15;;;16.60;61.80;;;;;;6249277;22;20023;-82
2021/01/19 13:59:30;;;;;;;11.05;1.20;;;16.60;61.80;;;;;;6250403;23;20004;-80
2021/01/19 14:01:56;;;;;;;7.70;1.48;;;16.60;61.80;;;;;;6248499;23;20015;-81
2021/01/19 14:04:22;;;;;;;4.18;0.80;;;16.60;61.70;;;;;;6259270;22;20012;-81
2021/01/19 14:06:48;;;;;;;7.35;1.30;;;16.70;61.70;;;;;;6255602;23;20353;-81
2021/01/19 14:09:14;;;;;;;4.15;0.80;;;16.70;61.60;;;;;;6258165;23;20019;-81
2021/01/19 14:11:40;;;;;;;6.38;0.98;;;16.70;61.60;;;;;;6259322;23;20027;-81
2021/01/19 14:14:15;;;;;;;3.67;0.70;;;16.60;61.60;;;;;;6249452;23;20012;-81
2021/01/19 14:16:44;;;;;;;5.50;0.85;;;16.60;61.90;;;;;;6259294;22;20293;-81
2021/01/19 14:19:10;;;;;;;8.90;1.00;;;16.60;61.90;;;;;;6259133;22;20289;-79
2021/01/19 14:21:36;;;;;;;7.00;0.85;;;16.60;62.00;;;;;;6259711;22;20004;-78
2021/01/19 14:24:03;;;;;;;4.38;0.73;;;16.70;62.20;;;;;;6248964;23;20008;-79
2021/01/19 14:26:29;;;;;;;7.53;1.00;;;16.70;62.20;;;;;;6258088;23;20020;-79
2021/01/19 14:28:56;;;;;;;5.70;0.77;;;16.70;62.50;;;;;;6259161;22;20421;-79
2021/01/19 14:31:22;;;;;;;6.78;0.93;;;16.70;62.50;;;;;;6258949;22;20333;-79
2021/01/19 14:33:47;;;;;;;7.68;1.65;;;16.80;62.50;;;;;;6259572;23;20022;-79
2021/01/19 14:36:17;;;;;;;7.55;1.40;;;16.80;62.50;;;;;;6258748;23;20012;-78
2021/01/19 14:38:44;;;;;;;6.47;0.80;;;16.80;62.50;;;;;;6259481;22;20011;-80
2021/01/19 14:41:10;;;;;;;5.13;0.90;;;16.80;62.40;;;;;;6248965;22;20283;-79
2021/01/19 14:43:37;;;;;;;4.65;0.90;;;16.80;62.40;;;;;;6258729;23;20019;-79
2021/01/19 14:46:03;;;;;;;5.95;0.77;;;16.90;62.20;;;;;;6259636;23;20440;-79
2021/01/19 14:48:28;;;;;;;5.68;0.68;;;16.90;62.20;;;;;;6248834;22;20360;-79
2021/01/19 14:50:54;;;;;;;4.85;0.63;;;16.90;62.10;;;;;;6259223;23;20019;-80
2021/01/19 14:53:20;;;;;;;3.03;0.50;;;16.80;61.80;;;;;;6259260;22;20047;-79
2021/01/19 14:55:46;;;;;;;2.97;0.68;;;16.90;61.90;;;;;;6259359;23;20040;-79
2021/01/19 14:58:13;;;;;;;2.42;0.50;;;16.90;61.80;;;;;;6258828;22;20012;-78
2021/01/19 15:00:39;;;;;;;4.90;0.50;;;16.90;61.70;;;;;;6258222;23;20016;-79
2021/01/19 15:03:05;;;;;;;4.38;0.60;;;16.90;61.50;;;;;;6258514;23;20012;-78
2021/01/19 15:05:32;;;;;;;3.90;0.30;;;16.80;62.20;;;;;;6258085;23;20015;-79
2021/01/19 15:07:59;;;;;;;6.05;0.50;;;16.80;61.80;;;;;;6250899;22;20019;-80
2021/01/19 15:10:26;;;;;;;6.30;0.80;;;16.70;61.90;;;;;;6258975;22;20043;-78
2021/01/19 15:12:53;;;;;;;3.45;0.68;;;16.60;62.10;;;;;;6258940;22;20036;-79
2021/01/19 15:15:22;;;;;;;7.32;0.90;;;16.60;62.30;;;;;;6259660;22;20048;-79
2021/01/19 15:17:50;;;;;;;8.18;0.98;;;16.60;62.40;;;;;;6248259;22;20040;-80
2021/01/19 15:20:16;;;;;;;6.50;1.17;;;16.60;62.50;;;;;;6259432;22;20039;-79
2021/01/19 15:22:42;;;;;;;7.68;1.30;;;16.60;62.50;;;;;;6258806;23;20012;-80
2021/01/19 15:25:09;;;;;;;10.20;1.25;;;16.60;62.60;;;;;;6248916;22;20035;-79
2021/01/19 15:27:35;;;;;;;6.07;0.63;;;16.60;62.70;;;;;;6258513;22;20042;-79
2021/01/19 15:30:01;;;;;;;9.43;1.08;;;16.70;62.60;;;;;;6258442;22;20116;-80
2021/01/19 15:32:28;;;;;;;7.43;1.30;;;16.70;62.40;;;;;;6257472;23;20337;-77
2021/01/19 15:34:57;;;;;;;14.88;2.20;;;16.80;62.10;;;;;;6257923;22;20061;-77
2021/01/19 15:37:28;;;;;;;39.38;4.05;;;16.80;61.80;;;;;;6257222;23;20012;-82
2021/01/19 15:39:54;;;;;;;34.25;3.55;;;16.80;61.90;;;;;;6246983;22;20058;-80
2021/01/19 15:42:20;;;;;;;20.77;2.08;;;16.80;62.10;;;;;;6258074;23;20336;-78
2021/01/19 15:44:46;;;;;;;12.52;1.77;;;16.80;62.10;;;;;;6258039;23;20058;-81
2021/01/19 15:47:12;;;;;;;16.63;1.77;;;16.80;62.10;;;;;;6248587;23;20039;-79
2021/01/19 15:49:38;;;;;;;18.42;2.65;;;16.80;62.70;;;;;;6258592;23;20074;-81
2021/01/19 15:52:04;;;;;;;15.70;2.78;;;16.80;62.10;;;;;;6247953;23;20062;-78
2021/01/19 15:54:29;;;;;;;15.30;2.20;;;16.90;62.40;;;;;;6257588;22;20004;-80
2021/01/19 15:56:55;;;;;;;12.35;2.33;;;16.80;62.40;;;;;;6258285;23;20023;-79
2021/01/19 15:59:22;;;;;;;8.85;1.80;;;16.90;62.30;;;;;;6259270;23;20012;-80
2021/01/19 16:01:51;;;;;;;11.35;2.85;;;16.90;62.10;;;;;;6257252;23;20102;-78
2021/01/19 16:04:18;;;;;;;8.25;1.70;;;17.00;62.00;;;;;;6258000;23;20008;-78
2021/01/19 16:06:44;;;;;;;20.52;2.70;;;17.00;61.90;;;;;;6256655;22;20012;-79
2021/01/19 16:09:14;;;;;;;8.05;1.88;;;17.10;61.80;;;;;;6258616;22;20431;-81
2021/01/19 16:11:40;;;;;;;11.43;2.00;;;17.10;61.70;;;;;;6258064;22;20015;-79
2021/01/19 16:14:06;;;;;;;8.98;1.70;;;17.10;61.60;;;;;;6258220;23;20012;-80
2021/01/19 16:16:33;;;;;;;9.68;1.67;;;17.20;61.60;;;;;;6258419;23;20012;-80
2021/01/19 16:19:00;;;;;;;14.30;2.35;;;17.20;61.60;;;;;;6257612;22;20016;-80
2021/01/19 16:21:26;;;;;;;14.73;2.13;;;17.30;61.70;;;;;;6258571;22;20012;-80
2021/01/19 16:23:53;;;;;;;17.05;3.05;;;17.30;61.50;;;;;;6257806;23;20019;-80
2021/01/19 16:26:21;;;;;;;19.77;2.97;;;17.30;61.40;;;;;;6258261;22;20087;-79
2021/01/19 16:28:48;;;;;;;20.45;2.42;;;17.30;61.30;;;;;;6257517;22;20421;-81
2021/01/19 16:31:19;;;;;;;17.77;3.15;;;17.40;61.20;;;;;;6258060;22;20008;-79
2021/01/19 16:33:46;;;;;;;14.40;2.28;;;17.30;61.20;;;;;;6258039;22;20301;-79
2021/01/19 16:36:13;;;;;;;15.93;2.65;;;17.30;61.10;;;;;;6258498;22;20042;-80
2021/01/19 16:38:40;;;;;;;14.73;2.65;;;17.30;61.20;;;;;;6258110;22;20018;-78
2021/01/19 16:41:06;;;;;;;15.48;2.70;;;17.30;61.20;;;;;;6258056;22;20091;-80
2021/01/19 16:43:33;;;;;;;18.48;3.30;;;17.30;61.50;;;;;;6257969;22;20012;-80
2021/01/19 16:46:00;;;;;;;14.00;2.75;;;17.20;61.50;;;;;;6258458;22;20047;-80
2021/01/19 16:48:27;;;;;;;22.02;3.13;;;17.20;61.60;;;;;;6258270;22;20008;-79
2021/01/19 16:50:54;;;;;;;14.48;2.88;;;17.20;61.70;;;;;;6258131;22;20074;-80
2021/01/19 16:53:22;;;;;;;11.23;2.08;;;17.20;61.70;;;;;;6258030;22;20015;-80
2021/01/19 16:55:49;;;;;;;18.52;2.78;;;17.20;61.30;;;;;;6257076;23;20008;-81
2021/01/19 16:58:15;;;;;;;14.05;2.30;;;17.20;61.40;;;;;;6257777;23;20012;-78
2021/01/19 17:00:42;;;;;;;16.08;2.67;;;17.20;61.50;;;;;;6258307;22;20034;-79
2021/01/19 17:03:08;;;;;;;9.98;2.03;;;17.10;61.40;;;;;;6247563;23;20042;-79
2021/01/19 17:05:36;;;;;;;12.95;2.60;;;17.10;61.40;;;;;;6257697;22;20038;-79
2021/01/19 17:08:06;;;;;;;15.45;2.45;;;17.10;61.40;;;;;;6249456;23;20074;-79
2021/01/19 17:10:33;;;;;;;10.85;2.40;;;17.10;61.40;;;;;;6248294;22;20322;-80
2021/01/19 17:13:02;;;;;;;15.57;2.22;;;17.10;61.50;;;;;;6259936;22;20022;-84
2021/01/19 17:15:29;;;;;;;13.43;2.35;;;17.10;61.60;;;;;;6248224;23;20076;-80
2021/01/19 17:17:55;;;;;;;12.27;2.65;;;17.10;61.70;;;;;;6259985;22;20008;-78
2021/01/19 17:20:21;;;;;;;11.90;2.00;;;17.10;61.80;;;;;;6259565;22;20062;-78
2021/01/19 17:22:47;;;;;;;17.67;2.78;;;17.10;61.70;;;;;;6258921;23;20087;-78
2021/01/19 17:25:15;;;;;;;18.10;2.75;;;17.10;61.80;;;;;;6259849;22;20326;-78
2021/01/19 17:27:42;;;;;;;19.80;2.83;;;17.10;61.90;;;;;;6260229;22;20340;-78
2021/01/19 17:30:09;;;;;;;16.05;2.30;;;17.10;61.90;;;;;;6249984;22;20051;-79
2021/01/19 17:32:35;;;;;;;15.52;2.38;;;17.10;61.90;;;;;;6259368;22;20012;-80
2021/01/19 17:35:01;;;;;;;14.60;2.33;;;17.10;61.80;;;;;;6259673;23;20058;-80
2021/01/19 17:37:27;;;;;;;11.25;2.50;;;17.10;61.80;;;;;;6259704;23;20296;-78
2021/01/19 17:39:53;;;;;;;10.60;2.40;;;17.10;61.70;;;;;;6258982;22;20023;-79
2021/01/19 17:42:19;;;;;;;13.65;2.05;;;17.00;61.50;;;;;;6259094;22;20016;-79
2021/01/19 17:44:46;;;;;;;9.75;1.70;;;17.00;61.50;;;;;;6259737;23;20038;-78
2021/01/19 17:47:13;;;;;;;10.18;2.47;;;17.00;61.40;;;;;;6259315;22;20087;-80
2021/01/19 17:49:39;;;;;;;10.75;1.70;;;17.00;61.30;;;;;;6259866;22;20008;-79
2021/01/19 17:52:06;;;;;;;10.77;1.80;;;17.00;61.30;;;;;;6259616;22;20346;-78
2021/01/19 17:54:32;;;;;;;7.60;2.00;;;17.00;61.30;;;;;;6259885;23;20083;-79
2021/01/19 17:57:02;;;;;;;8.88;2.00;;;17.00;61.20;;;;;;6259738;22;20012;-79
2021/01/19 17:59:31;;;;;;;7.32;2.03;;;17.00;61.10;;;;;;6249573;22;20039;-78
2021/01/19 18:01:58;;;;;;;5.40;1.58;;;17.00;61.10;;;;;;6259783;23;20004;-78
2021/01/19 18:04:25;;;;;;;10.68;2.47;;;17.00;61.10;;;;;;6259618;22;20016;-78
2021/01/19 18:06:51;;;;;;;10.52;1.83;;;16.90;60.90;;;;;;6256815;23;20004;-78
2021/01/19 18:09:19;;;;;;;7.20;1.50;;;16.90;60.90;;;;;;6259336;22;20266;-79
2021/01/19 18:11:46;;;;;;;9.02;1.90;;;16.90;60.90;;;;;;6259636;22;20012;-80
2021/01/19 18:14:12;;;;;;;9.43;2.05;;;16.90;60.80;;;;;;6258417;23;20019;-78
2021/01/19 18:16:39;;;;;;;11.45;2.53;;;16.90;60.80;;;;;;6259535;22;20082;-79
2021/01/19 18:19:24;;;;;;;9.85;2.08;;;16.90;60.70;;;;;;6259354;23;20008;-80
2021/01/19 18:21:51;;;;;;;12.02;2.28;;;16.80;60.50;;;;;;6258988;22;20406;-78
2021/01/19 18:24:18;;;;;;;9.07;2.13;;;16.80;60.60;;;;;;6259872;22;20012;-80
2021/01/19 18:26:46;;;;;;;6.68;1.80;;;16.80;60.50;;;;;;6260438;22;20016;-78
2021/01/19 18:29:17;;;;;;;6.70;2.03;;;16.80;60.50;;;;;;6259052;22;20012;-79
2021/01/19 18:31:52;;;;;;;6.93;1.92;;;16.70;60.40;;;;;;6249483;22;20305;-78
2021/01/19 18:34:19;;;;;;;8.85;2.05;;;16.80;60.50;;;;;;6259609;22;20008;-79
2021/01/19 18:36:55;;;;;;;7.90;2.13;;;16.70;60.40;;;;;;6259918;22;20035;-79
2021/01/19 18:39:23;;;;;;;7.40;2.55;;;16.70;60.30;;;;;;6259485;22;20039;-79
2021/01/19 18:41:49;;;;;;;7.60;2.35;;;16.70;60.30;;;;;;6258601;23;20020;-79
2021/01/19 18:44:15;;;;;;;6.18;2.22;;;16.70;60.30;;;;;;6258555;22;20073;-78
2021/01/19 18:46:41;;;;;;;9.95;2.40;;;16.70;60.30;;;;;;6259796;22;20091;-78
2021/01/19 18:49:16;;;;;;;9.43;2.08;;;16.70;60.20;;;;;;6259205;23;20012;-79
2021/01/19 18:51:42;;;;;;;13.10;2.35;;;16.60;60.10;;;;;;6258343;23;20012;-83
2021/01/19 18:54:37;;;;;;;14.10;3.05;;;16.70;60.20;;;;;;6247375;23;20008;-84
2021/01/19 18:57:06;;;;;;;9.95;2.58;;;16.60;60.20;;;;;;6247050;23;20009;-83
2021/01/19 18:59:41;;;;;;;11.23;2.40;;;16.60;60.40;;;;;;6223495;23;20488;-82
2021/01/19 19:02:14;;;;;;;12.48;2.83;;;16.50;60.50;;;;;;6222387;23;20051;-83
2021/01/19 19:04:42;;;;;;;8.98;2.72;;;16.40;60.50;;;;;;6247154;23;20083;-81
2021/01/19 19:07:09;;;;;;;10.48;2.70;;;16.30;60.70;;;;;;6221717;23;20047;-82
2021/01/19 19:09:42;;;;;;;15.85;3.53;;;16.30;60.80;;;;;;6223631;23;20008;-83
2021/01/19 19:12:42;;;;;;;12.57;2.75;;;16.30;60.90;;;;;;6247652;23;20313;-82
2021/01/19 19:15:09;;;;;;;10.85;2.40;;;16.30;61.00;;;;;;6221826;23;20467;-81
2021/01/19 19:17:40;;;;;;;11.90;3.08;;;16.20;61.10;;;;;;6222593;23;20019;-83
2021/01/19 19:20:14;;;;;;;15.70;2.95;;;16.20;61.10;;;;;;6248129;23;20008;-83